createdAt,value
2024-04-21T00:01:20.971Z,53.61
2024-04-21T00:03:47.839Z,52.53
2024-04-21T00:06:14.263Z,53.53
2024-04-21T00:08:40.546Z,53.22
2024-04-21T00:11:06.954Z,52.72
2024-04-21T00:13:33.247Z,51.08
2024-04-21T00:15:59.593Z,53.13
2024-04-21T00:18:25.926Z,54.03
2024-04-21T00:20:52.186Z,53.60
2024-04-21T00:23:18.455Z,54.29
2024-04-21T00:25:44.724Z,53.97
2024-04-21T00:28:11.083Z,53.80
2024-04-21T00:30:37.435Z,53.02
2024-04-21T00:33:03.944Z,50.83
2024-04-21T00:35:30.287Z,50.11
2024-04-21T00:37:56.567Z,50.49
2024-04-21T00:40:24.222Z,52.52
2024-04-21T00:42:50.841Z,53.74
2024-04-21T00:45:22.801Z,51.82
2024-04-21T00:47:55.666Z,51.02
2024-04-21T00:50:21.958Z,51.56
2024-04-21T00:52:48.233Z,52.79
2024-04-21T00:55:14.536Z,53.09
2024-04-21T00:57:40.870Z,53.81
2024-04-21T01:00:07.175Z,53.66
2024-04-21T01:02:33.524Z,52.77
2024-04-21T01:04:59.874Z,53.35
2024-04-21T01:07:26.212Z,53.71
2024-04-21T01:09:52.498Z,53.46
2024-04-21T01:12:18.796Z,53.56
2024-04-21T01:14:45.060Z,53.56
2024-04-21T01:17:11.330Z,53.83
2024-04-21T01:19:37.635Z,53.63
2024-04-21T01:22:03.969Z,52.24
2024-04-21T01:24:30.254Z,53.69
2024-04-21T01:26:56.630Z,53.95
2024-04-21T01:29:22.897Z,53.48
2024-04-21T01:31:49.176Z,53.77
2024-04-21T01:34:15.529Z,53.85
2024-04-21T01:36:41.856Z,53.91
2024-04-21T01:39:08.109Z,54.05
2024-04-21T01:41:34.370Z,54.13
2024-04-21T01:44:00.624Z,52.96
2024-04-21T01:46:26.928Z,52.85
2024-04-21T01:48:53.269Z,53.30
2024-04-21T01:51:19.702Z,52.89
2024-04-21T01:53:45.956Z,52.06
2024-04-21T01:56:12.218Z,52.46
2024-04-21T01:58:38.492Z,53.58
2024-04-21T02:01:04.810Z,53.66
2024-04-21T02:03:31.150Z,53.81
2024-04-21T02:05:57.449Z,53.79
2024-04-21T02:08:23.702Z,53.11
2024-04-21T02:10:50.009Z,53.27
2024-04-21T02:13:16.315Z,53.21
2024-04-21T02:15:42.648Z,51.78
2024-04-21T02:18:08.952Z,52.69
2024-04-21T02:20:35.210Z,53.29
2024-04-21T02:23:01.488Z,52.84
2024-04-21T02:25:27.866Z,52.79
2024-04-21T02:27:54.247Z,52.79
2024-04-21T02:30:22.468Z,51.94
2024-04-21T02:32:50.100Z,51.04
2024-04-21T02:35:16.407Z,51.41
2024-04-21T02:37:42.670Z,51.63
2024-04-21T02:40:08.956Z,52.22
2024-04-21T02:42:35.238Z,52.98
2024-04-21T02:45:01.564Z,53.42
2024-04-21T02:47:27.858Z,53.31
2024-04-21T02:49:54.175Z,53.35
2024-04-21T02:52:20.475Z,53.13
2024-04-21T02:54:46.792Z,52.48
2024-04-21T02:57:13.105Z,52.83
2024-04-21T02:59:39.367Z,52.17
2024-04-21T03:02:05.623Z,52.35
2024-04-21T03:04:32.007Z,52.21
2024-04-21T03:06:58.481Z,52.14
2024-04-21T03:09:24.731Z,52.45
2024-04-21T03:11:50.977Z,52.52
2024-04-21T03:14:17.249Z,53.39
2024-04-21T03:16:43.518Z,52.18
2024-04-21T03:19:09.807Z,50.85
2024-04-21T03:21:36.160Z,52.14
2024-04-21T03:24:02.429Z,52.69
2024-04-21T03:26:28.743Z,52.60
2024-04-21T03:28:55.031Z,51.75
2024-04-21T03:31:21.388Z,50.49
2024-04-21T03:33:47.700Z,51.73
2024-04-21T03:36:14.031Z,52.05
2024-04-21T03:38:40.300Z,52.38
2024-04-21T03:41:06.602Z,52.38
2024-04-21T03:43:32.877Z,52.27
2024-04-21T03:45:59.253Z,51.89
2024-04-21T03:48:25.612Z,52.04
2024-04-21T03:50:51.916Z,52.83
2024-04-21T03:53:19.555Z,52.46
2024-04-21T03:55:45.833Z,51.52
2024-04-21T03:58:12.146Z,50.84
2024-04-21T04:00:38.468Z,49.74
2024-04-21T04:03:04.774Z,50.52
2024-04-21T04:05:31.059Z,49.83
2024-04-21T04:07:57.340Z,49.80
2024-04-21T04:10:23.684Z,49.35
2024-04-21T04:12:50.142Z,49.49
2024-04-21T04:15:16.413Z,48.54
2024-04-21T04:17:42.782Z,48.95
2024-04-21T04:20:09.131Z,50.69
2024-04-21T04:22:35.397Z,49.98
2024-04-21T04:25:01.685Z,48.27
2024-04-21T04:27:27.986Z,48.31
2024-04-21T04:29:54.269Z,48.34
2024-04-21T04:32:20.565Z,48.88
2024-04-21T04:34:46.831Z,49.79
2024-04-21T04:37:13.188Z,50.45
2024-04-21T04:39:39.450Z,49.49
2024-04-21T04:42:05.819Z,48.78
2024-04-21T04:44:32.132Z,47.61
2024-04-21T04:46:58.422Z,47.90
2024-04-21T04:49:24.735Z,48.18
2024-04-21T04:51:51.058Z,49.08
2024-04-21T04:54:17.323Z,50.40
2024-04-21T04:56:43.638Z,49.86
2024-04-21T04:59:09.935Z,48.10
2024-04-21T05:01:36.278Z,46.91
2024-04-21T05:04:02.663Z,46.73
2024-04-21T05:06:28.968Z,46.20
2024-04-21T05:08:55.261Z,47.14
2024-04-21T05:11:21.567Z,46.69
2024-04-21T05:13:47.851Z,46.11
2024-04-21T05:16:14.149Z,46.80
2024-04-21T05:18:40.434Z,47.92
2024-04-21T05:21:06.697Z,48.01
2024-04-21T05:23:32.989Z,47.46
2024-04-21T05:25:59.284Z,47.17
2024-04-21T05:28:36.706Z,47.74
2024-04-21T05:31:11.608Z,46.79
2024-04-21T05:33:37.919Z,47.27
2024-04-21T05:36:04.195Z,47.33
2024-04-21T05:38:30.488Z,46.69
2024-04-21T05:40:56.788Z,46.30
2024-04-21T05:43:23.099Z,46.66
2024-04-21T05:45:49.443Z,45.76
2024-04-21T05:48:15.755Z,43.77
2024-04-21T05:50:42.013Z,44.93
2024-04-21T05:53:08.302Z,45.38
2024-04-21T05:55:34.575Z,45.20
2024-04-21T05:58:00.880Z,43.82
2024-04-21T06:00:27.243Z,44.41
2024-04-21T06:02:53.584Z,44.15
2024-04-21T06:05:19.956Z,43.65
2024-04-21T06:07:46.230Z,43.64
2024-04-21T06:10:12.576Z,43.31
2024-04-21T06:12:38.881Z,42.85
2024-04-21T06:15:05.137Z,42.79
2024-04-21T06:17:31.509Z,42.74
2024-04-21T06:19:57.813Z,42.56
2024-04-21T06:22:24.142Z,42.20
2024-04-21T06:24:50.451Z,42.03
2024-04-21T06:27:16.726Z,41.19
2024-04-21T06:29:43.002Z,40.75
2024-04-21T06:32:09.294Z,40.50
2024-04-21T06:34:35.556Z,38.49
2024-04-21T06:37:01.859Z,36.80
2024-04-21T06:39:28.144Z,35.96
2024-04-21T06:41:54.406Z,34.69
2024-04-21T06:44:20.701Z,34.44
2024-04-21T06:46:46.976Z,33.01
2024-04-21T06:49:13.294Z,34.38
2024-04-21T06:51:39.647Z,33.43
2024-04-21T06:54:05.909Z,32.96
2024-04-21T06:56:32.171Z,33.66
2024-04-21T06:58:58.437Z,32.93
2024-04-21T07:01:24.822Z,32.26
2024-04-21T07:03:51.310Z,32.35
2024-04-21T07:06:17.679Z,32.35
2024-04-21T07:08:43.976Z,33.71
2024-04-21T07:11:10.274Z,34.02
2024-04-21T07:13:36.590Z,33.48
2024-04-21T07:16:02.907Z,33.40
2024-04-21T07:18:29.280Z,34.27
2024-04-21T07:20:55.590Z,32.76
2024-04-21T07:23:21.866Z,33.30
2024-04-21T07:25:48.168Z,33.02
2024-04-21T07:28:14.523Z,32.25
2024-04-21T07:30:40.871Z,33.90
2024-04-21T07:33:07.203Z,33.96
2024-04-21T07:35:33.504Z,32.40
2024-04-21T07:38:01.201Z,32.66
2024-04-21T07:40:28.621Z,30.57
2024-04-21T07:42:54.939Z,30.35
2024-04-21T07:45:21.215Z,30.40
2024-04-21T07:47:47.621Z,28.90
2024-04-21T07:50:13.966Z,28.22
2024-04-21T07:52:40.231Z,27.99
2024-04-21T07:55:06.568Z,28.38
2024-04-21T07:57:32.890Z,28.26
2024-04-21T07:59:59.170Z,27.16
2024-04-21T08:02:29.106Z,25.72
2024-04-21T08:04:56.958Z,26.01
2024-04-21T08:07:23.300Z,24.97
2024-04-21T08:09:49.655Z,26.22
2024-04-21T08:12:15.931Z,25.80
2024-04-21T08:14:42.201Z,25.61
2024-04-21T08:17:08.501Z,25.29
2024-04-21T08:19:34.789Z,25.42
2024-04-21T08:22:01.097Z,25.09
2024-04-21T08:24:27.380Z,26.23
2024-04-21T08:26:53.650Z,26.52
2024-04-21T08:29:19.925Z,27.20
2024-04-21T08:31:46.232Z,27.05
2024-04-21T08:34:12.564Z,31.07
2024-04-21T08:36:38.847Z,32.29
2024-04-21T08:39:05.106Z,32.64
2024-04-21T08:41:31.380Z,34.25
2024-04-21T08:43:57.663Z,33.92
2024-04-21T08:46:24.020Z,36.37
2024-04-21T08:48:50.381Z,36.53
2024-04-21T08:51:16.654Z,39.58
2024-04-21T08:53:42.929Z,38.94
2024-04-21T08:56:09.190Z,39.86
2024-04-21T08:58:36.160Z,40.55
2024-04-21T09:01:02.698Z,39.65
2024-04-21T09:03:29.002Z,41.31
2024-04-21T09:05:55.281Z,42.52
2024-04-21T09:08:21.582Z,41.90
2024-04-21T09:10:47.880Z,41.32
2024-04-21T09:13:14.219Z,41.51
2024-04-21T09:15:40.521Z,41.43
2024-04-21T09:18:06.903Z,38.87
2024-04-21T09:20:33.232Z,38.96
2024-04-21T09:22:59.525Z,38.40
2024-04-21T09:25:26.040Z,40.40
2024-04-21T09:27:52.426Z,42.02
2024-04-21T09:30:18.919Z,41.92
2024-04-21T09:32:45.252Z,42.37
2024-04-21T09:35:11.587Z,42.44
2024-04-21T09:37:37.877Z,43.41
2024-04-21T09:40:04.231Z,43.74
2024-04-21T09:42:30.551Z,44.37
2024-04-21T09:44:56.824Z,45.98
2024-04-21T09:47:23.152Z,47.48
2024-04-21T09:49:49.449Z,47.73
2024-04-21T09:52:15.889Z,48.57
2024-04-21T09:54:42.225Z,49.13
2024-04-21T09:57:08.510Z,48.53
2024-04-21T09:59:34.785Z,48.46
2024-04-21T10:02:01.279Z,48.56
2024-04-21T10:04:27.587Z,49.08
2024-04-21T10:06:53.900Z,49.80
2024-04-21T10:09:20.231Z,50.97
2024-04-21T10:11:46.502Z,49.52
2024-04-21T10:14:12.769Z,48.81
2024-04-21T10:16:39.041Z,50.41
2024-04-21T10:19:05.337Z,50.20
2024-04-21T10:21:31.611Z,50.78
2024-04-21T10:23:57.887Z,49.87
2024-04-21T10:26:24.162Z,49.63
2024-04-21T10:28:50.436Z,47.40
2024-04-21T10:31:16.703Z,46.51
2024-04-21T10:33:42.965Z,48.75
2024-04-21T10:36:09.280Z,48.33
2024-04-21T10:38:35.554Z,45.25
2024-04-21T10:41:01.827Z,42.70
2024-04-21T10:43:28.119Z,40.15
2024-04-21T10:45:54.412Z,40.68
2024-04-21T10:48:20.843Z,39.61
2024-04-21T10:50:47.124Z,36.84
2024-04-21T10:53:13.382Z,35.02
2024-04-21T10:55:39.673Z,33.58
2024-04-21T10:58:06.026Z,32.75
2024-04-21T11:00:32.383Z,32.07
2024-04-21T11:02:58.798Z,30.96
2024-04-21T11:05:25.141Z,32.47
2024-04-21T11:07:52.911Z,34.21
2024-04-21T11:10:20.029Z,33.35
2024-04-21T11:12:46.367Z,32.92
2024-04-21T11:15:12.668Z,34.79
2024-04-21T11:17:38.976Z,41.36
2024-04-21T11:20:05.280Z,45.13
2024-04-21T11:22:31.614Z,48.08
2024-04-21T11:24:57.898Z,49.85
2024-04-21T11:27:24.178Z,50.13
2024-04-21T11:29:50.466Z,50.97
2024-04-21T11:32:16.805Z,51.18
2024-04-21T11:34:43.177Z,52.12
2024-04-21T11:37:09.455Z,51.05
2024-04-21T11:39:35.742Z,51.08
2024-04-21T11:42:02.010Z,50.25
2024-04-21T11:44:28.288Z,49.88
2024-04-21T11:46:54.550Z,47.56
2024-04-21T11:49:20.847Z,47.27
2024-04-21T11:51:47.121Z,48.17
2024-04-21T11:54:13.405Z,48.13
2024-04-21T11:56:39.680Z,44.81
2024-04-21T11:59:05.967Z,43.29
2024-04-21T12:01:40.393Z,41.91
2024-04-21T12:04:14.500Z,42.83
2024-04-21T12:06:43.651Z,39.74
2024-04-21T12:09:10.197Z,37.51
2024-04-21T12:11:36.494Z,37.71
2024-04-21T12:14:02.775Z,36.42
2024-04-21T12:16:29.275Z,37.12
2024-04-21T12:18:55.621Z,38.95
2024-04-21T12:21:21.894Z,38.81
2024-04-21T12:23:48.148Z,41.91
2024-04-21T12:26:14.401Z,45.14
2024-04-21T12:28:40.667Z,47.62
2024-04-21T12:31:06.983Z,47.39
2024-04-21T12:33:33.340Z,47.78
2024-04-21T12:35:59.679Z,47.21
2024-04-21T12:38:25.973Z,48.14
2024-04-21T12:40:52.321Z,45.83
2024-04-21T12:43:18.642Z,45.54
2024-04-21T12:45:44.977Z,44.84
2024-04-21T12:48:12.069Z,42.13
2024-04-21T12:50:39.269Z,40.82
2024-04-21T12:53:05.572Z,39.30
2024-04-21T12:55:31.889Z,40.38
2024-04-21T12:57:58.267Z,40.14
2024-04-21T13:00:24.572Z,37.75
2024-04-21T13:02:50.897Z,35.72
2024-04-21T13:05:17.261Z,35.64
2024-04-21T13:07:43.543Z,35.12
2024-04-21T13:10:09.856Z,36.11
2024-04-21T13:12:36.159Z,37.52
2024-04-21T13:15:02.531Z,36.74
2024-04-21T13:17:28.803Z,41.25
2024-04-21T13:19:55.104Z,43.03
2024-04-21T13:22:21.760Z,45.11
2024-04-21T13:24:48.121Z,45.15
2024-04-21T13:27:14.381Z,47.02
2024-04-21T13:29:43.136Z,48.35
2024-04-21T13:32:09.755Z,49.88
2024-04-21T13:34:36.078Z,50.45
2024-04-21T13:37:02.377Z,52.00
2024-04-21T13:39:28.653Z,56.03
2024-04-21T13:41:54.918Z,59.88
2024-04-21T13:44:21.203Z,58.60
2024-04-21T13:46:47.496Z,64.12
2024-04-21T13:49:13.817Z,64.37
2024-04-21T13:51:40.122Z,65.28
2024-04-21T13:54:06.403Z,65.05
2024-04-21T13:56:32.667Z,63.04
2024-04-21T13:58:58.923Z,65.51
2024-04-21T14:01:25.389Z,64.71
2024-04-21T14:03:51.758Z,61.57
2024-04-21T14:06:21.140Z,60.36
2024-04-21T14:08:48.473Z,60.10
2024-04-21T14:11:14.801Z,59.04
2024-04-21T14:13:41.094Z,54.54
2024-04-21T14:16:07.383Z,54.58
2024-04-21T14:18:33.725Z,51.95
2024-04-21T14:20:59.984Z,47.99
2024-04-21T14:23:27.126Z,45.87
2024-04-21T14:25:54.274Z,45.25
2024-04-21T14:28:20.549Z,43.18
2024-04-21T14:30:46.821Z,43.45
2024-04-21T14:33:13.230Z,41.92
2024-04-21T14:35:39.579Z,40.65
2024-04-21T14:38:05.830Z,38.57
2024-04-21T14:40:32.215Z,38.95
2024-04-21T14:42:58.574Z,37.78
2024-04-21T14:45:24.872Z,37.68
2024-04-21T14:47:51.242Z,37.22
2024-04-21T14:50:17.542Z,37.96
2024-04-21T14:52:43.842Z,36.93
2024-04-21T14:55:10.176Z,38.91
2024-04-21T14:57:36.453Z,39.15
2024-04-21T15:00:02.811Z,38.14
2024-04-21T15:02:29.172Z,38.40
2024-04-21T15:04:55.518Z,37.64
2024-04-21T15:07:21.930Z,36.64
2024-04-21T15:09:48.214Z,38.04
2024-04-21T15:12:15.808Z,39.85
2024-04-21T15:14:42.237Z,41.20
2024-04-21T15:17:08.565Z,39.00
2024-04-21T15:19:34.916Z,42.85
2024-04-21T15:22:01.325Z,45.68
2024-04-21T15:24:27.613Z,55.96
2024-04-21T15:26:53.907Z,65.57
2024-04-21T15:29:20.165Z,67.89
2024-04-21T15:31:46.527Z,68.38
2024-04-21T15:34:13.028Z,65.62
2024-04-21T15:36:39.315Z,66.91
2024-04-21T15:39:05.602Z,66.31
2024-04-21T15:41:31.853Z,67.61
2024-04-21T15:43:58.109Z,69.22
2024-04-21T15:46:24.488Z,69.63
2024-04-21T15:48:50.786Z,65.75
2024-04-21T15:51:17.035Z,68.26
2024-04-21T15:53:43.300Z,68.90
2024-04-21T15:56:09.575Z,72.05
2024-04-21T15:58:35.913Z,71.22
2024-04-21T16:01:02.457Z,72.48
2024-04-21T16:03:28.848Z,71.61
2024-04-21T16:05:55.143Z,68.60
2024-04-21T16:08:21.424Z,65.31
2024-04-21T16:10:47.886Z,63.56
2024-04-21T16:13:14.338Z,63.20
2024-04-21T16:15:40.693Z,61.30
2024-04-21T16:18:07.074Z,59.71
2024-04-21T16:20:33.409Z,62.44
2024-04-21T16:22:59.724Z,61.38
2024-04-21T16:25:26.075Z,60.36
2024-04-21T16:27:52.348Z,62.58
2024-04-21T16:30:18.613Z,60.62
2024-04-21T16:32:45.018Z,60.57
2024-04-21T16:35:11.370Z,60.61
2024-04-21T16:37:37.651Z,58.46
2024-04-21T16:40:03.999Z,58.00
2024-04-21T16:42:30.265Z,56.71
2024-04-21T16:44:56.548Z,55.56
2024-04-21T16:47:22.825Z,55.47
2024-04-21T16:49:49.099Z,54.47
2024-04-21T16:52:15.355Z,55.24
2024-04-21T16:54:41.747Z,52.87
2024-04-21T16:57:14.782Z,52.97
2024-04-21T16:59:47.656Z,53.38
2024-04-21T17:02:13.944Z,50.25
2024-04-21T17:04:42.375Z,47.45
2024-04-21T17:07:09.044Z,50.09
2024-04-21T17:09:35.313Z,51.17
2024-04-21T17:12:01.614Z,52.20
2024-04-21T17:14:27.883Z,51.68
2024-04-21T17:16:54.183Z,51.50
2024-04-21T17:19:20.503Z,49.69
2024-04-21T17:21:46.764Z,50.49
2024-04-21T17:24:13.171Z,52.14
2024-04-21T17:26:39.429Z,51.51
2024-04-21T17:29:07.409Z,50.86
2024-04-21T17:31:35.462Z,50.28
2024-04-21T17:34:01.813Z,50.91
2024-04-21T17:36:28.088Z,50.62
2024-04-21T17:38:54.356Z,51.40
2024-04-21T17:41:20.654Z,50.73
2024-04-21T17:43:46.919Z,49.77
2024-04-21T17:46:13.222Z,50.97
2024-04-21T17:48:39.478Z,52.65
2024-04-21T17:51:05.811Z,52.86
2024-04-21T17:53:32.084Z,52.45
2024-04-21T17:55:58.370Z,52.65
2024-04-21T17:58:24.752Z,52.63
2024-04-21T18:00:51.059Z,52.21
2024-04-21T18:03:17.363Z,51.96
2024-04-21T18:05:43.635Z,52.37
2024-04-21T18:08:09.907Z,51.20
2024-04-21T18:10:36.265Z,50.80
2024-04-21T18:13:02.599Z,51.38
2024-04-21T18:15:28.894Z,50.57
2024-04-21T18:17:55.213Z,50.49
2024-04-21T18:20:21.513Z,51.62
2024-04-21T18:22:47.794Z,51.05
2024-04-21T18:25:14.158Z,51.45
2024-04-21T18:27:40.542Z,51.89
2024-04-21T18:30:06.819Z,51.71
2024-04-21T18:32:33.159Z,52.11
2024-04-21T18:34:59.479Z,51.90
2024-04-21T18:37:25.770Z,51.72
2024-04-21T18:39:52.051Z,52.60
2024-04-21T18:42:20.575Z,53.08
2024-04-21T18:44:46.890Z,52.18
2024-04-21T18:47:13.354Z,52.74
2024-04-21T18:49:39.752Z,53.17
2024-04-21T18:52:06.048Z,54.05
2024-04-21T18:54:32.330Z,53.12
2024-04-21T18:56:58.596Z,52.98
2024-04-21T18:59:24.880Z,53.24
2024-04-21T19:01:51.234Z,53.73
2024-04-21T19:04:17.600Z,54.39
2024-04-21T19:06:43.907Z,54.44
2024-04-21T19:09:10.177Z,53.99
2024-04-21T19:11:36.492Z,54.34
2024-04-21T19:14:02.786Z,52.18
2024-04-21T19:16:29.142Z,52.03
2024-04-21T19:18:55.473Z,50.60
2024-04-21T19:21:21.741Z,51.99
2024-04-21T19:23:48.043Z,52.62
2024-04-21T19:26:14.334Z,50.66
2024-04-21T19:28:40.621Z,52.80
2024-04-21T19:31:07.010Z,52.59
2024-04-21T19:33:33.750Z,51.60
2024-04-21T19:36:00.082Z,53.98
2024-04-21T19:38:26.347Z,54.86
2024-04-21T19:40:52.678Z,55.41
2024-04-21T19:43:18.987Z,64.63
2024-04-21T19:45:45.284Z,68.44
2024-04-21T19:48:11.839Z,71.83
2024-04-21T19:50:38.182Z,73.00
2024-04-21T19:53:04.481Z,75.75
2024-04-21T19:55:30.825Z,74.26
2024-04-21T19:57:57.090Z,74.94
2024-04-21T20:00:23.347Z,74.62
2024-04-21T20:02:49.657Z,75.12
2024-04-21T20:05:15.998Z,73.17
2024-04-21T20:07:42.388Z,68.53
2024-04-21T20:10:08.735Z,65.59
2024-04-21T20:12:35.089Z,64.34
2024-04-21T20:15:01.353Z,63.42
2024-04-21T20:17:27.737Z,61.76
2024-04-21T20:19:54.111Z,59.71
2024-04-21T20:22:20.452Z,59.50
2024-04-21T20:24:46.740Z,59.32
2024-04-21T20:27:13.002Z,58.47
2024-04-21T20:29:39.274Z,57.53
2024-04-21T20:32:05.616Z,57.51
2024-04-21T20:34:31.970Z,57.74
2024-04-21T20:36:58.251Z,57.26
2024-04-21T20:39:24.576Z,56.99
2024-04-21T20:41:50.848Z,59.03
2024-04-21T20:44:17.116Z,59.76
2024-04-21T20:46:43.422Z,60.16
2024-04-21T20:49:09.798Z,59.52
2024-04-21T20:51:36.103Z,59.53
2024-04-21T20:54:02.386Z,59.37
2024-04-21T20:56:28.679Z,59.40
2024-04-21T20:58:55.036Z,58.32
2024-04-21T21:01:21.800Z,57.95
2024-04-21T21:03:48.354Z,56.93
2024-04-21T21:06:14.672Z,56.40
2024-04-21T21:08:40.940Z,56.44
2024-04-21T21:11:07.327Z,56.94
2024-04-21T21:13:33.697Z,56.36
2024-04-21T21:15:59.964Z,56.87
2024-04-21T21:18:26.388Z,56.85
2024-04-21T21:20:52.715Z,56.84
2024-04-21T21:23:18.983Z,58.26
2024-04-21T21:25:45.283Z,57.58
2024-04-21T21:28:11.577Z,57.72
2024-04-21T21:30:37.873Z,56.87
2024-04-21T21:33:04.181Z,56.73
2024-04-21T21:35:30.561Z,57.36
2024-04-21T21:37:56.835Z,58.16
2024-04-21T21:40:23.159Z,57.00
2024-04-21T21:42:49.456Z,56.67
2024-04-21T21:45:15.719Z,57.17
2024-04-21T21:47:42.136Z,55.85
2024-04-21T21:50:08.476Z,55.72
2024-04-21T21:52:34.790Z,56.90
2024-04-21T21:55:01.069Z,55.75
2024-04-21T21:57:27.343Z,55.76
2024-04-21T21:59:53.600Z,57.58
2024-04-21T22:02:19.968Z,56.90
2024-04-21T22:04:46.327Z,56.52
2024-04-21T22:07:12.623Z,57.02
2024-04-21T22:09:38.909Z,57.94
2024-04-21T22:12:05.171Z,58.08
2024-04-21T22:14:31.424Z,57.30
2024-04-21T22:16:57.710Z,56.92
2024-04-21T22:19:24.012Z,55.17
2024-04-21T22:21:50.277Z,55.60
2024-04-21T22:24:16.543Z,55.09
2024-04-21T22:26:42.835Z,54.22
2024-04-21T22:29:09.095Z,53.79
2024-04-21T22:31:45.981Z,53.56
2024-04-21T22:34:19.596Z,53.50
2024-04-21T22:36:45.885Z,54.08
2024-04-21T22:39:12.174Z,53.60
2024-04-21T22:41:38.431Z,56.18
2024-04-21T22:44:04.735Z,54.18
2024-04-21T22:46:31.044Z,53.34
2024-04-21T22:48:57.331Z,54.22
2024-04-21T22:51:23.603Z,53.69
2024-04-21T22:53:49.877Z,53.98
2024-04-21T22:56:16.128Z,55.70
2024-04-21T22:58:42.440Z,56.18
2024-04-21T23:01:08.963Z,55.57
2024-04-21T23:03:35.343Z,56.90
2024-04-21T23:06:01.616Z,57.78
2024-04-21T23:08:27.880Z,57.10
2024-04-21T23:10:54.267Z,58.62
2024-04-21T23:13:20.597Z,58.10
2024-04-21T23:15:46.892Z,57.51
2024-04-21T23:18:13.181Z,56.96
2024-04-21T23:20:39.445Z,56.49
2024-04-21T23:23:05.711Z,56.47
2024-04-21T23:25:32.021Z,56.88
2024-04-21T23:27:58.323Z,56.86
2024-04-21T23:30:24.631Z,57.16
2024-04-21T23:32:50.991Z,56.53
2024-04-21T23:35:17.295Z,56.73
2024-04-21T23:37:43.597Z,57.25
2024-04-21T23:40:09.910Z,56.44
2024-04-21T23:42:36.197Z,55.14
2024-04-21T23:45:02.483Z,55.23
2024-04-21T23:47:28.826Z,56.51
2024-04-21T23:49:55.110Z,56.12
2024-04-21T23:52:21.469Z,56.34
2024-04-21T23:54:47.767Z,56.44
2024-04-21T23:57:14.045Z,56.76
2024-04-21T23:59:40.333Z,56.52
